Pagrindinis puslapis
METAR-TAF:

METAR-TAF

Oro uostai :

Al Wajh, Saudo Arabija

platuma: 26-12N, ilguma: 036-28E, Aukštis: 20 m

Dabartinis oras

Ataskaita buvo paskelbta 31 minutes, ne 14:00 UTC
Vėjas 13 kt iš Vakarų/Šiaurės Vakarų
Temperatūra 27°C
Drėgmė 62%
Slėgis 1006 hPa
Matomumas 10 km arba daugiau
nėra debesų žemiau 1500 m ir nėra kamuolinių lietaus debesų

METAR: OEWJ 201400Z 29013KT CAVOK 27/19 Q1006 NOSIG

Laikas: 17:31 (14:31 UTC)

Prognozė

Ataskaita buvo paskelbta 3 valandos ir 31 minutes, ne 11:00 UTC
Prognozė galioja nuo 20 metu 12 UTC su 21 metu 18 UTC
Vėjas 13 kt iš Vakarų/Šiaurės Vakarų
Matomumas 10 km arba daugiau
nėra debesų žemiau 1500 m ir nėra kamuolinių lietaus debesų
Tapsmas
nuo 21 metu 00 UTC su 21 metu 02 UTC
Vėjas 3 kt nuo kintamojo kryptimis
Tapsmas
nuo 21 metu 08 UTC su 21 metu 10 UTC
Vėjas 15 kt iš Vakarų/Šiaurės Vakarų

TAF: OEWJ 201100Z 2012/2118 30013KT CAVOK BECMG 2100/2102 VRB03KT BECMG 2108/2110 30015KT

Orai ataskaitas ir orų prognozės (METAR, TAF).

turimą stotys yra geltonos ir raudonos taškus žemėlapyje.

Perkelti pele per norėdami pamatyti stoties vardą.

Tada spustelėkite, norėdami matyti oro stebėjimo ir prognozės.

Norėdami pakeisti žemėlapį: spustelėkite ant žalios mygtukų su juodo kryžiaus žemyn,; žalią mygtuką su brūkšneliu, jei norite nutolinti; arba žalių rodyklių gretimoms žemėlapius.


METAR-TAF: